createdAt,value
2023-04-30T00:00:39.087Z,91.55
2023-04-30T00:01:23.811Z,91.55
2023-04-30T00:02:09.207Z,140.53
2023-04-30T00:02:54.209Z,139.41
2023-04-30T00:03:39.227Z,127.83
2023-04-30T00:04:24.235Z,127.83
2023-04-30T00:05:12.698Z,127.83
2023-04-30T00:05:54.346Z,127.83
2023-04-30T00:06:39.555Z,127.83
2023-04-30T00:07:24.544Z,127.83
2023-04-30T00:08:09.770Z,127.83
2023-04-30T00:08:54.481Z,127.83
2023-04-30T00:09:39.334Z,127.83
2023-04-30T00:10:24.799Z,127.83
2023-04-30T00:11:09.652Z,127.83
2023-04-30T00:11:54.786Z,127.83
2023-04-30T00:12:39.600Z,103.37
2023-04-30T00:13:24.758Z,103.37
2023-04-30T00:14:09.676Z,103.37
2023-04-30T00:14:55.040Z,103.37
2023-04-30T00:15:40.425Z,103.37
2023-04-30T00:16:24.990Z,103.37
2023-04-30T00:17:09.857Z,103.37
2023-04-30T00:17:55.073Z,103.37
2023-04-30T00:18:40.266Z,103.37
2023-04-30T00:19:25.600Z,103.37
2023-04-30T00:20:10.865Z,112.36
2023-04-30T00:20:55.407Z,112.36
2023-04-30T00:21:40.678Z,112.36
2023-04-30T00:22:25.716Z,112.36
2023-04-30T00:23:10.353Z,145.20
2023-04-30T00:23:55.515Z,145.20
2023-04-30T00:24:41.082Z,145.20
2023-04-30T00:25:25.934Z,145.20
2023-04-30T00:26:10.885Z,145.20
2023-04-30T00:26:55.977Z,145.20
2023-04-30T00:27:41.211Z,145.20
2023-04-30T00:28:25.911Z,145.20
2023-04-30T00:29:11.189Z,145.20
2023-04-30T00:29:56.340Z,145.20
2023-04-30T00:30:41.295Z,145.20
2023-04-30T00:31:26.301Z,145.20
2023-04-30T00:32:11.497Z,145.20
2023-04-30T00:32:56.327Z,145.20
2023-04-30T00:33:41.303Z,145.20
2023-04-30T00:34:26.403Z,145.20
2023-04-30T00:35:11.588Z,145.20
2023-04-30T00:35:56.316Z,145.20
2023-04-30T00:36:41.270Z,145.20
2023-04-30T00:37:26.627Z,145.20
2023-04-30T00:38:11.585Z,145.20
2023-04-30T00:38:56.451Z,113.50
2023-04-30T00:39:41.700Z,113.50
2023-04-30T00:40:26.548Z,112.62
2023-04-30T00:41:11.704Z,112.62
2023-04-30T00:41:56.872Z,101.38
2023-04-30T00:42:41.920Z,101.38
2023-04-30T00:43:27.145Z,101.38
2023-04-30T00:44:11.830Z,111.72
2023-04-30T00:44:56.983Z,110.73
2023-04-30T00:45:41.699Z,124.01
2023-04-30T00:46:27.239Z,124.01
2023-04-30T00:47:12.774Z,124.01
2023-04-30T00:47:57.353Z,124.01
2023-04-30T00:48:42.304Z,124.01
2023-04-30T00:49:27.229Z,124.01
2023-04-30T00:50:14.615Z,107.25
2023-04-30T00:50:57.422Z,133.31
2023-04-30T00:51:42.599Z,133.31
2023-04-30T00:52:27.751Z,133.31
2023-04-30T00:53:12.512Z,133.31
2023-04-30T00:53:57.664Z,133.31
2023-04-30T00:54:42.619Z,133.31
2023-04-30T00:55:27.467Z,133.31
2023-04-30T00:56:13.002Z,133.31
2023-04-30T00:56:57.684Z,134.30
2023-04-30T00:57:42.875Z,134.30
2023-04-30T00:58:28.130Z,134.30
2023-04-30T00:59:12.862Z,134.30
2023-04-30T00:59:58.709Z,134.30
2023-04-30T01:00:43.386Z,134.30
2023-04-30T01:01:30.155Z,134.30
2023-04-30T01:02:13.558Z,134.30
2023-04-30T01:02:58.297Z,134.30
2023-04-30T01:03:43.465Z,134.30
2023-04-30T01:04:28.354Z,134.30
2023-04-30T01:05:13.698Z,134.30
2023-04-30T01:05:58.671Z,134.30
2023-04-30T01:06:43.660Z,134.30
2023-04-30T01:07:28.578Z,134.30
2023-04-30T01:08:14.037Z,134.30
2023-04-30T01:08:58.688Z,134.30
2023-04-30T01:09:43.750Z,134.30
2023-04-30T01:10:28.905Z,134.30
2023-04-30T01:11:13.842Z,134.30
2023-04-30T01:11:58.819Z,134.30
2023-04-30T01:12:44.277Z,134.30
2023-04-30T01:13:29.961Z,134.30
2023-04-30T01:14:14.702Z,134.30
2023-04-30T01:14:59.251Z,134.30
2023-04-30T01:15:44.245Z,134.30
2023-04-30T01:16:29.433Z,134.30
2023-04-30T01:17:14.315Z,134.30
2023-04-30T01:17:59.715Z,134.30
2023-04-30T01:18:44.426Z,134.30
2023-04-30T01:19:29.580Z,134.30
2023-04-30T01:20:15.503Z,134.30
2023-04-30T01:21:00.289Z,134.30
2023-04-30T01:21:44.547Z,134.30
2023-04-30T01:22:30.062Z,134.30
2023-04-30T01:23:14.867Z,134.30
2023-04-30T01:23:59.917Z,134.30
2023-04-30T01:24:44.773Z,134.30
2023-04-30T01:25:29.735Z,134.30
2023-04-30T01:26:15.189Z,134.30
2023-04-30T01:27:00.048Z,134.30
2023-04-30T01:27:45.111Z,134.30
2023-04-30T01:28:30.469Z,134.30
2023-04-30T01:29:15.623Z,134.30
2023-04-30T01:30:02.360Z,134.30
2023-04-30T01:30:46.038Z,134.30
2023-04-30T01:31:30.120Z,134.30
2023-04-30T01:32:15.435Z,134.30
2023-04-30T01:33:02.149Z,133.92
2023-04-30T01:33:45.458Z,147.92
2023-04-30T01:34:32.057Z,129.55
2023-04-30T01:35:15.463Z,150.29
2023-04-30T01:36:00.721Z,131.92
2023-04-30T01:36:45.983Z,131.92
2023-04-30T01:37:30.912Z,131.92
2023-04-30T01:38:16.334Z,131.92
2023-04-30T01:39:01.093Z,131.92
2023-04-30T01:39:46.001Z,131.92
2023-04-30T01:40:31.383Z,131.92
2023-04-30T01:41:16.322Z,131.92
2023-04-30T01:42:01.288Z,131.92
2023-04-30T01:42:46.191Z,131.92
2023-04-30T01:43:31.414Z,131.92
2023-04-30T01:44:16.451Z,131.92
2023-04-30T01:45:01.117Z,131.92
2023-04-30T01:45:46.508Z,131.92
2023-04-30T01:46:32.029Z,131.92
2023-04-30T01:47:16.283Z,131.92
2023-04-30T01:48:01.611Z,131.92
2023-04-30T01:48:47.301Z,131.92
2023-04-30T01:49:31.677Z,131.92
2023-04-30T01:50:16.710Z,131.92
2023-04-30T01:51:01.645Z,131.92
2023-04-30T01:51:48.307Z,131.92
2023-04-30T01:52:32.379Z,131.92
2023-04-30T01:53:17.143Z,131.92
2023-04-30T01:54:01.674Z,139.59
2023-04-30T01:54:47.129Z,151.86
2023-04-30T01:55:32.447Z,151.86
2023-04-30T01:56:16.940Z,151.86
2023-04-30T01:57:01.893Z,125.98
2023-04-30T01:57:48.200Z,90.88
2023-04-30T01:58:33.858Z,88.57
2023-04-30T01:59:17.072Z,105.08
2023-04-30T02:00:04.067Z,105.08
2023-04-30T02:00:46.975Z,133.31
2023-04-30T02:01:33.643Z,133.31
2023-04-30T02:02:18.210Z,133.31
2023-04-30T02:03:02.765Z,133.31
2023-04-30T02:03:47.595Z,133.31
2023-04-30T02:04:33.104Z,133.31
2023-04-30T02:05:17.571Z,133.31
2023-04-30T02:06:03.266Z,133.31
2023-04-30T02:06:47.729Z,133.31
2023-04-30T02:07:33.309Z,133.31
2023-04-30T02:08:17.359Z,132.10
2023-04-30T02:09:03.407Z,132.10
2023-04-30T02:09:47.819Z,127.17
2023-04-30T02:10:32.888Z,127.17
2023-04-30T02:11:18.169Z,127.17
2023-04-30T02:12:03.540Z,127.17
2023-04-30T02:12:48.086Z,127.17
2023-04-30T02:13:33.229Z,127.17
2023-04-30T02:14:18.197Z,127.17
2023-04-30T02:15:03.253Z,127.17
2023-04-30T02:15:48.082Z,124.79
2023-04-30T02:16:33.820Z,124.79
2023-04-30T02:17:18.416Z,128.12
2023-04-30T02:18:03.761Z,128.12
2023-04-30T02:18:48.324Z,128.12
2023-04-30T02:19:34.029Z,128.12
2023-04-30T02:20:18.695Z,128.12
2023-04-30T02:21:04.314Z,128.12
2023-04-30T02:21:50.500Z,90.00
2023-04-30T02:22:34.530Z,91.55
2023-04-30T02:23:18.865Z,91.55
2023-04-30T02:24:04.436Z,91.55
2023-04-30T02:24:49.199Z,91.55
2023-04-30T02:25:33.893Z,145.37
2023-04-30T02:26:20.834Z,89.85
2023-04-30T02:27:04.260Z,89.85
2023-04-30T02:27:49.614Z,89.85
2023-04-30T02:28:34.486Z,89.85
2023-04-30T02:29:19.218Z,89.85
2023-04-30T02:30:04.502Z,89.85
2023-04-30T02:30:50.061Z,89.85
2023-04-30T02:31:34.623Z,89.85
2023-04-30T02:32:19.685Z,89.85
2023-04-30T02:33:04.677Z,89.85
2023-04-30T02:33:49.821Z,89.85
2023-04-30T02:34:34.411Z,128.44
2023-04-30T02:35:21.400Z,128.44
2023-04-30T02:36:04.928Z,128.44
2023-04-30T02:36:49.879Z,128.44
2023-04-30T02:37:35.058Z,128.44
2023-04-30T02:38:20.198Z,128.44
2023-04-30T02:39:05.870Z,128.44
2023-04-30T02:39:50.315Z,128.44
2023-04-30T02:40:35.435Z,128.44
2023-04-30T02:41:20.121Z,128.44
2023-04-30T02:42:05.483Z,128.44
2023-04-30T02:42:50.361Z,128.44
2023-04-30T02:43:35.395Z,128.44
2023-04-30T02:44:21.268Z,91.75
2023-04-30T02:45:07.090Z,91.75
2023-04-30T02:45:50.475Z,91.75
2023-04-30T02:46:35.835Z,91.75
2023-04-30T02:47:20.264Z,91.75
2023-04-30T02:48:05.771Z,91.75
2023-04-30T02:48:50.326Z,91.75
2023-04-30T02:49:35.556Z,91.75
2023-04-30T02:50:22.021Z,91.75
2023-04-30T02:51:05.882Z,91.75
2023-04-30T02:51:50.944Z,91.75
2023-04-30T02:52:36.089Z,91.75
2023-04-30T02:53:20.996Z,91.75
2023-04-30T02:54:06.117Z,91.75
2023-04-30T02:54:51.039Z,91.75
2023-04-30T02:55:37.041Z,91.75
2023-04-30T02:56:20.934Z,91.75
2023-04-30T02:57:06.307Z,91.75
2023-04-30T02:57:50.762Z,127.76
2023-04-30T02:58:37.845Z,127.76
2023-04-30T02:59:21.057Z,137.72
2023-04-30T03:00:06.123Z,137.72
2023-04-30T03:00:51.313Z,137.72
2023-04-30T03:01:37.116Z,137.72
2023-04-30T03:02:21.793Z,137.72
2023-04-30T03:03:06.621Z,137.72
2023-04-30T03:03:52.421Z,137.72
2023-04-30T03:04:36.779Z,137.72
2023-04-30T03:05:23.354Z,137.72
2023-04-30T03:06:06.560Z,137.72
2023-04-30T03:06:51.928Z,137.72
2023-04-30T03:07:36.788Z,137.72
2023-04-30T03:08:21.847Z,137.72
2023-04-30T03:09:06.914Z,137.72
2023-04-30T03:09:52.465Z,137.72
2023-04-30T03:10:36.806Z,125.40
2023-04-30T03:11:22.069Z,147.28
2023-04-30T03:12:07.437Z,142.18
2023-04-30T03:12:53.220Z,142.18
2023-04-30T03:13:37.623Z,142.18
2023-04-30T03:14:22.294Z,127.51
2023-04-30T03:15:07.758Z,139.63
2023-04-30T03:15:52.049Z,120.01
2023-04-30T03:16:37.518Z,111.81
2023-04-30T03:17:22.253Z,111.81
2023-04-30T03:18:07.579Z,143.20
2023-04-30T03:18:52.425Z,130.25
2023-04-30T03:19:39.821Z,130.25
2023-04-30T03:20:23.078Z,130.25
2023-04-30T03:21:07.876Z,130.25
2023-04-30T03:21:53.495Z,137.10
2023-04-30T03:22:38.439Z,142.09
2023-04-30T03:23:23.074Z,147.86
2023-04-30T03:24:08.859Z,147.86
2023-04-30T03:24:54.517Z,92.40
2023-04-30T03:25:38.859Z,92.40
2023-04-30T03:26:23.518Z,92.40
2023-04-30T03:27:08.463Z,92.40
2023-04-30T03:27:53.726Z,92.40
2023-04-30T03:28:38.777Z,92.40
2023-04-30T03:29:23.672Z,92.40
2023-04-30T03:30:08.776Z,92.40
2023-04-30T03:30:53.435Z,142.71
2023-04-30T03:31:38.943Z,142.71
2023-04-30T03:32:23.882Z,142.71
2023-04-30T03:33:08.677Z,123.57
2023-04-30T03:33:53.686Z,124.20
2023-04-30T03:34:39.257Z,134.61
2023-04-30T03:35:23.682Z,139.20
2023-04-30T03:36:08.943Z,139.20
2023-04-30T03:36:53.785Z,139.20
2023-04-30T03:37:39.461Z,139.20
2023-04-30T03:38:24.111Z,139.20
2023-04-30T03:39:09.158Z,130.25
2023-04-30T03:39:54.380Z,125.40
2023-04-30T03:40:39.666Z,125.40
2023-04-30T03:41:24.851Z,125.40
2023-04-30T03:42:09.598Z,125.40
2023-04-30T03:42:54.684Z,125.40
2023-04-30T03:43:39.844Z,125.40
2023-04-30T03:44:24.915Z,125.40
2023-04-30T03:45:09.511Z,125.40
2023-04-30T03:45:54.911Z,125.40
2023-04-30T03:46:39.876Z,129.62
2023-04-30T03:47:24.579Z,131.34
2023-04-30T03:48:09.869Z,131.34
2023-04-30T03:48:54.893Z,131.34
2023-04-30T03:49:40.263Z,131.34
2023-04-30T03:50:25.379Z,131.34
2023-04-30T03:51:10.241Z,131.34
2023-04-30T03:51:55.330Z,131.34
2023-04-30T03:52:40.493Z,131.34
2023-04-30T03:53:25.463Z,131.34
2023-04-30T03:54:10.704Z,131.34
2023-04-30T03:54:55.736Z,131.34
2023-04-30T03:55:40.720Z,131.34
2023-04-30T03:56:25.663Z,131.34
2023-04-30T03:57:10.530Z,131.34
2023-04-30T03:57:55.795Z,131.34
2023-04-30T03:58:40.955Z,131.34
2023-04-30T03:59:25.684Z,131.34
2023-04-30T04:00:10.990Z,131.34
2023-04-30T04:00:56.766Z,131.34
2023-04-30T04:01:41.327Z,131.34
2023-04-30T04:02:26.030Z,131.34
2023-04-30T04:03:11.416Z,131.34
2023-04-30T04:03:56.313Z,131.34
2023-04-30T04:04:41.191Z,131.34
2023-04-30T04:05:26.505Z,131.34
2023-04-30T04:06:11.224Z,131.34
2023-04-30T04:06:56.213Z,131.34
2023-04-30T04:07:41.526Z,131.34
2023-04-30T04:08:26.466Z,131.34
2023-04-30T04:09:11.541Z,131.34
2023-04-30T04:09:56.713Z,131.34
2023-04-30T04:10:41.554Z,131.34
2023-04-30T04:11:26.797Z,131.34
2023-04-30T04:12:11.657Z,131.34
2023-04-30T04:12:57.114Z,131.34
2023-04-30T04:13:41.861Z,131.34
2023-04-30T04:14:27.020Z,131.34
2023-04-30T04:15:11.667Z,131.34
2023-04-30T04:15:57.362Z,131.34
2023-04-30T04:16:42.350Z,131.34
2023-04-30T04:17:27.185Z,80.09
2023-04-30T04:18:12.000Z,125.39
2023-04-30T04:18:57.261Z,126.62
2023-04-30T04:19:42.119Z,134.53
2023-04-30T04:20:28.193Z,115.66
2023-04-30T04:21:12.140Z,107.28
2023-04-30T04:21:58.475Z,107.28
2023-04-30T04:22:42.439Z,107.28
2023-04-30T04:23:27.906Z,107.28
2023-04-30T04:24:12.820Z,107.28
2023-04-30T04:24:58.218Z,107.28
2023-04-30T04:25:42.729Z,107.28
2023-04-30T04:26:27.830Z,121.14
2023-04-30T04:27:13.574Z,101.38
2023-04-30T04:27:57.250Z,121.14
2023-04-30T04:28:42.599Z,115.88
2023-04-30T04:29:27.540Z,124.18
2023-04-30T04:30:12.982Z,117.07
2023-04-30T04:30:57.651Z,115.88
2023-04-30T04:31:43.082Z,101.38
2023-04-30T04:32:28.298Z,101.38
2023-04-30T04:33:14.865Z,104.65
2023-04-30T04:33:58.480Z,104.65
2023-04-30T04:34:43.331Z,104.65
2023-04-30T04:35:28.099Z,76.02
2023-04-30T04:36:13.522Z,126.51
2023-04-30T04:36:59.170Z,127.13
2023-04-30T04:37:43.465Z,131.49
2023-04-30T04:38:28.518Z,124.79
2023-04-30T04:39:13.879Z,120.53
2023-04-30T04:39:58.935Z,100.79
2023-04-30T04:40:44.205Z,108.75
2023-04-30T04:41:28.637Z,114.04
2023-04-30T04:42:13.910Z,125.21
2023-04-30T04:42:59.288Z,112.21
2023-04-30T04:43:44.030Z,93.63
2023-04-30T04:44:29.280Z,111.57
2023-04-30T04:45:14.472Z,119.01
2023-04-30T04:45:59.242Z,110.56
2023-04-30T04:46:44.310Z,110.17
2023-04-30T04:47:29.432Z,116.29
2023-04-30T04:48:14.872Z,114.25
2023-04-30T04:48:59.460Z,111.23
2023-04-30T04:49:44.407Z,116.97
2023-04-30T04:50:29.524Z,108.81
2023-04-30T04:51:14.350Z,114.56
2023-04-30T04:51:59.565Z,111.23
2023-04-30T04:52:45.200Z,109.66
2023-04-30T04:53:30.055Z,102.27
2023-04-30T04:54:15.211Z,126.49
2023-04-30T04:55:00.002Z,126.49
2023-04-30T04:55:45.734Z,127.17
2023-04-30T04:56:30.452Z,127.17
2023-04-30T04:57:15.358Z,124.45
2023-04-30T04:57:59.823Z,107.19
2023-04-30T04:58:45.462Z,120.37
2023-04-30T04:59:30.215Z,125.60
2023-04-30T05:00:15.476Z,121.05
2023-04-30T05:01:00.516Z,125.13
2023-04-30T05:01:45.655Z,118.33
2023-04-30T05:02:30.254Z,110.30
2023-04-30T05:03:15.876Z,122.14
2023-04-30T05:04:00.621Z,127.88
2023-04-30T05:04:45.816Z,119.65
2023-04-30T05:05:30.853Z,133.87
2023-04-30T05:06:15.871Z,111.55
2023-04-30T05:07:02.716Z,111.55
2023-04-30T05:07:46.231Z,106.56
2023-04-30T05:08:31.461Z,116.04
2023-04-30T05:09:16.863Z,130.46
2023-04-30T05:10:01.312Z,113.23
2023-04-30T05:10:46.107Z,124.45
2023-04-30T05:11:30.999Z,107.11
2023-04-30T05:12:16.826Z,133.29
2023-04-30T05:13:01.426Z,89.72
2023-04-30T05:13:46.386Z,123.09
2023-04-30T05:14:31.332Z,127.85
2023-04-30T05:15:17.744Z,128.53
2023-04-30T05:16:01.333Z,120.90
2023-04-30T05:16:46.632Z,133.25
2023-04-30T05:17:31.931Z,126.88
2023-04-30T05:18:16.825Z,125.88
2023-04-30T05:19:01.765Z,125.88
2023-04-30T05:19:46.922Z,115.29
2023-04-30T05:20:31.785Z,104.09
2023-04-30T05:21:17.273Z,116.54
2023-04-30T05:22:01.990Z,116.54
2023-04-30T05:22:46.855Z,112.80
2023-04-30T05:23:32.436Z,110.79
2023-04-30T05:24:17.070Z,124.33
2023-04-30T05:25:02.678Z,111.40
2023-04-30T05:25:46.989Z,114.76
2023-04-30T05:26:32.410Z,123.22
2023-04-30T05:27:17.024Z,123.88
2023-04-30T05:28:02.555Z,123.88
2023-04-30T05:28:47.398Z,120.55
2023-04-30T05:29:32.725Z,102.27
2023-04-30T05:30:18.191Z,112.21
2023-04-30T05:31:02.330Z,104.07
2023-04-30T05:31:47.661Z,90.36
2023-04-30T05:32:32.741Z,101.66
2023-04-30T05:33:17.634Z,112.17
2023-04-30T05:34:02.813Z,104.09
2023-04-30T05:34:47.760Z,102.27
2023-04-30T05:35:32.771Z,103.45
2023-04-30T05:36:17.759Z,129.07
2023-04-30T05:37:03.166Z,121.22
2023-04-30T05:37:48.073Z,121.73
2023-04-30T05:38:33.033Z,107.11
2023-04-30T05:39:18.531Z,131.85
2023-04-30T05:40:03.378Z,127.88
2023-04-30T05:40:48.166Z,116.68
2023-04-30T05:41:33.385Z,114.67
2023-04-30T05:42:18.217Z,117.31
2023-04-30T05:43:03.984Z,121.22
2023-04-30T05:43:48.637Z,123.09
2023-04-30T05:44:33.661Z,121.73
2023-04-30T05:45:20.790Z,115.89
2023-04-30T05:46:03.559Z,107.11
2023-04-30T05:46:48.555Z,109.02
2023-04-30T05:47:33.683Z,109.02
2023-04-30T05:48:18.735Z,99.72
2023-04-30T05:49:03.723Z,107.11
2023-04-30T05:49:48.674Z,111.89
2023-04-30T05:50:34.307Z,109.02
2023-04-30T05:51:19.133Z,124.45
2023-04-30T05:52:04.293Z,113.49
2023-04-30T05:52:48.814Z,105.84
2023-04-30T05:53:34.366Z,105.84
2023-04-30T05:54:19.581Z,96.24
2023-04-30T05:55:04.066Z,90.65
2023-04-30T05:55:49.017Z,110.30
2023-04-30T05:56:34.620Z,107.19
2023-04-30T05:57:19.343Z,79.90
2023-04-30T05:58:05.224Z,79.90
2023-04-30T05:58:49.256Z,108.36
2023-04-30T05:59:34.558Z,108.36
2023-04-30T06:00:19.935Z,112.17
2023-04-30T06:01:04.672Z,112.17
2023-04-30T06:01:49.595Z,134.53
2023-04-30T06:02:34.890Z,110.93
2023-04-30T06:03:19.802Z,120.55
2023-04-30T06:04:04.775Z,123.22
2023-04-30T06:04:49.931Z,112.56
2023-04-30T06:05:35.829Z,108.15
2023-04-30T06:06:19.552Z,114.44
2023-04-30T06:07:05.264Z,114.44
2023-04-30T06:07:50.040Z,114.44
2023-04-30T06:08:35.266Z,114.44
2023-04-30T06:09:19.948Z,126.88
2023-04-30T06:10:05.002Z,117.49
2023-04-30T06:10:50.277Z,122.14
2023-04-30T06:11:35.620Z,116.27
2023-04-30T06:12:20.271Z,120.53
2023-04-30T06:13:06.453Z,120.53
2023-04-30T06:13:50.404Z,120.53
2023-04-30T06:14:35.867Z,120.53
2023-04-30T06:15:20.701Z,120.53
2023-04-30T06:16:05.509Z,121.23
2023-04-30T06:16:50.565Z,132.12
2023-04-30T06:17:35.503Z,132.74
2023-04-30T06:18:20.297Z,121.75
2023-04-30T06:19:05.771Z,122.36
2023-04-30T06:19:51.106Z,130.06
2023-04-30T06:20:35.809Z,122.77
2023-04-30T06:21:21.053Z,126.24
2023-04-30T06:22:06.621Z,126.24
2023-04-30T06:22:50.805Z,90.33
2023-04-30T06:23:36.423Z,90.33
2023-04-30T06:24:21.289Z,90.33
2023-04-30T06:25:06.334Z,90.33
2023-04-30T06:25:51.027Z,90.33
2023-04-30T06:26:38.370Z,90.33
2023-04-30T06:27:23.273Z,90.33
2023-04-30T06:28:06.721Z,87.71
2023-04-30T06:28:51.406Z,101.05
2023-04-30T06:29:36.671Z,101.05
2023-04-30T06:30:22.443Z,101.05
2023-04-30T06:31:06.617Z,101.05
2023-04-30T06:31:51.721Z,101.05
2023-04-30T06:32:36.727Z,101.05
2023-04-30T06:33:21.694Z,113.89
2023-04-30T06:34:06.701Z,102.27
2023-04-30T06:34:51.570Z,95.66
2023-04-30T06:35:37.124Z,97.46
2023-04-30T06:36:21.874Z,97.46
2023-04-30T06:37:06.974Z,104.09
2023-04-30T06:37:52.000Z,93.63
2023-04-30T06:38:37.406Z,93.63
2023-04-30T06:39:22.094Z,103.45
2023-04-30T06:40:07.175Z,103.45
2023-04-30T06:40:53.797Z,103.45
2023-04-30T06:41:37.061Z,99.83
2023-04-30T06:42:22.355Z,112.56
2023-04-30T06:43:07.276Z,99.24
2023-04-30T06:43:52.125Z,105.32
2023-04-30T06:44:37.523Z,105.32
2023-04-30T06:45:22.412Z,105.32
2023-04-30T06:46:08.781Z,105.32
2023-04-30T06:46:52.769Z,105.32
2023-04-30T06:47:38.068Z,96.82
2023-04-30T06:48:22.770Z,98.59
2023-04-30T06:49:07.865Z,105.78
2023-04-30T06:49:53.444Z,97.40
2023-04-30T06:50:38.151Z,97.40
2023-04-30T06:51:24.978Z,97.40
2023-04-30T06:52:07.972Z,112.85
2023-04-30T06:52:53.177Z,105.32
2023-04-30T06:53:38.310Z,95.66
2023-04-30T06:54:23.018Z,105.94
2023-04-30T06:55:08.672Z,105.94
2023-04-30T06:55:53.236Z,88.50
2023-04-30T06:56:38.089Z,108.39
2023-04-30T06:57:23.203Z,104.70
2023-04-30T06:58:08.319Z,104.70
2023-04-30T06:58:55.670Z,104.70
2023-04-30T06:59:38.870Z,104.70
2023-04-30T07:00:23.672Z,104.70
2023-04-30T07:01:08.299Z,113.89
2023-04-30T07:01:53.777Z,114.76
2023-04-30T07:02:38.620Z,69.77
2023-04-30T07:03:24.837Z,69.77
2023-04-30T07:04:10.396Z,69.77
2023-04-30T07:04:54.016Z,69.77
2023-04-30T07:05:39.477Z,69.77
2023-04-30T07:06:24.204Z,69.77
2023-04-30T07:07:09.208Z,69.77
2023-04-30T07:07:54.142Z,69.77
2023-04-30T07:08:39.409Z,69.77
2023-04-30T07:09:24.354Z,69.77
2023-04-30T07:10:09.518Z,69.77
2023-04-30T07:10:54.690Z,69.77
2023-04-30T07:11:39.257Z,69.77
2023-04-30T07:12:25.024Z,69.77
2023-04-30T07:13:10.355Z,69.77
2023-04-30T07:13:54.692Z,69.77
2023-04-30T07:14:41.496Z,69.77
2023-04-30T07:15:24.730Z,69.77
2023-04-30T07:16:09.954Z,69.77
2023-04-30T07:16:55.052Z,69.77
2023-04-30T07:17:39.930Z,69.77
2023-04-30T07:18:25.147Z,69.77
2023-04-30T07:19:10.191Z,69.77
2023-04-30T07:19:55.553Z,69.77
2023-04-30T07:20:40.204Z,69.77
2023-04-30T07:21:25.644Z,69.77
2023-04-30T07:22:09.721Z,105.32
2023-04-30T07:22:55.801Z,89.78
2023-04-30T07:23:40.223Z,89.78
2023-04-30T07:24:26.069Z,89.78
2023-04-30T07:25:10.417Z,89.78
2023-04-30T07:25:55.448Z,89.78
2023-04-30T07:26:40.748Z,89.78
2023-04-30T07:27:25.726Z,89.78
2023-04-30T07:28:10.161Z,89.78
2023-04-30T07:28:55.684Z,89.78
2023-04-30T07:29:40.873Z,89.78
2023-04-30T07:30:25.492Z,89.78
2023-04-30T07:31:10.465Z,102.45
2023-04-30T07:31:55.728Z,102.45
2023-04-30T07:32:40.658Z,94.49
2023-04-30T07:33:25.908Z,86.76
2023-04-30T07:34:11.333Z,86.76
2023-04-30T07:34:55.965Z,104.70
2023-04-30T07:35:41.404Z,107.81
2023-04-30T07:36:25.738Z,91.43
2023-04-30T07:37:10.622Z,107.14
2023-04-30T07:37:56.262Z,74.63
2023-04-30T07:38:40.940Z,104.09
2023-04-30T07:39:25.686Z,101.58
2023-04-30T07:40:13.254Z,113.89
2023-04-30T07:40:56.315Z,77.82
2023-04-30T07:41:41.432Z,112.80
2023-04-30T07:42:26.226Z,104.70
2023-04-30T07:43:11.278Z,110.30
2023-04-30T07:43:56.456Z,112.17
2023-04-30T07:44:41.693Z,114.67
2023-04-30T07:45:26.449Z,106.37
2023-04-30T07:46:11.442Z,108.75
2023-04-30T07:46:56.823Z,104.35
2023-04-30T07:47:41.890Z,104.35
2023-04-30T07:48:26.979Z,104.35
2023-04-30T07:49:11.627Z,103.19
2023-04-30T07:49:56.593Z,107.81
2023-04-30T07:50:41.738Z,98.56
2023-04-30T07:51:28.458Z,98.56
2023-04-30T07:52:11.974Z,105.92
2023-04-30T07:52:56.801Z,106.37
2023-04-30T07:53:42.187Z,106.37
2023-04-30T07:54:26.945Z,106.37
2023-04-30T07:55:12.552Z,106.37
2023-04-30T07:55:57.276Z,106.37
2023-04-30T07:56:42.152Z,106.37
2023-04-30T07:57:27.295Z,106.37
2023-04-30T07:58:12.404Z,106.37
2023-04-30T07:58:57.360Z,106.37
2023-04-30T07:59:42.415Z,106.37
2023-04-30T08:00:28.119Z,106.37
2023-04-30T08:01:12.432Z,108.15
2023-04-30T08:01:57.627Z,108.15
2023-04-30T08:02:43.146Z,108.15
2023-04-30T08:03:27.740Z,107.75
2023-04-30T08:04:12.847Z,122.55
2023-04-30T08:04:57.615Z,104.07
2023-04-30T08:05:42.914Z,104.07
2023-04-30T08:06:28.090Z,54.71
2023-04-30T08:07:12.677Z,75.48
2023-04-30T08:07:57.951Z,75.48
2023-04-30T08:08:43.405Z,75.48
2023-04-30T08:09:28.161Z,93.09
2023-04-30T08:10:13.223Z,89.12
2023-04-30T08:10:57.853Z,93.09
2023-04-30T08:11:43.341Z,93.09
2023-04-30T08:12:28.371Z,87.05
2023-04-30T08:13:13.085Z,87.05
2023-04-30T08:13:58.678Z,97.91
2023-04-30T08:14:43.031Z,93.72
2023-04-30T08:15:30.704Z,93.72
2023-04-30T08:16:13.086Z,94.36
2023-04-30T08:16:58.187Z,94.36
2023-04-30T08:17:44.530Z,94.36
2023-04-30T08:18:27.957Z,85.83
2023-04-30T08:19:13.490Z,92.23
2023-04-30T08:19:58.274Z,93.48
2023-04-30T08:20:43.577Z,87.66
2023-04-30T08:21:28.750Z,87.66
2023-04-30T08:22:13.795Z,97.24
2023-04-30T08:22:58.726Z,91.81
2023-04-30T08:23:43.518Z,87.66
2023-04-30T08:24:29.388Z,87.66
2023-04-30T08:25:13.884Z,90.99
2023-04-30T08:25:58.696Z,88.27
2023-04-30T08:26:43.963Z,88.27
2023-04-30T08:27:29.098Z,89.48
2023-04-30T08:28:14.472Z,96.57
2023-04-30T08:28:59.116Z,92.45
2023-04-30T08:29:44.366Z,92.45
2023-04-30T08:30:28.926Z,90.36
2023-04-30T08:31:14.282Z,90.99
2023-04-30T08:31:59.588Z,101.24
2023-04-30T08:32:44.321Z,84.06
2023-04-30T08:33:30.676Z,84.06
2023-04-30T08:34:14.450Z,92.85
2023-04-30T08:34:59.584Z,92.85
2023-04-30T08:35:45.301Z,92.85
2023-04-30T08:36:29.502Z,98.57
2023-04-30T08:37:14.686Z,92.29
2023-04-30T08:37:59.583Z,75.64
2023-04-30T08:38:44.847Z,74.60
2023-04-30T08:39:29.639Z,80.93
2023-04-30T08:40:15.037Z,80.93
2023-04-30T08:41:00.198Z,80.93
2023-04-30T08:41:45.193Z,81.19
2023-04-30T08:42:29.761Z,74.81
2023-04-30T08:43:15.180Z,74.81
2023-04-30T08:44:00.239Z,85.01
2023-04-30T08:44:45.299Z,88.13
2023-04-30T08:45:30.555Z,77.93
2023-04-30T08:46:15.198Z,88.13
2023-04-30T08:47:00.995Z,76.59
2023-04-30T08:47:45.649Z,76.59
2023-04-30T08:48:30.674Z,76.59
2023-04-30T08:49:16.158Z,86.00
2023-04-30T08:50:00.585Z,78.59
2023-04-30T08:50:45.609Z,76.51
2023-04-30T08:51:30.599Z,76.85
2023-04-30T08:52:15.699Z,80.50
2023-04-30T08:53:01.334Z,80.50
2023-04-30T08:53:45.961Z,80.50
2023-04-30T08:54:31.030Z,80.50
2023-04-30T08:55:17.009Z,80.50
2023-04-30T08:56:01.415Z,80.50
2023-04-30T08:56:45.900Z,80.50
2023-04-30T08:57:31.147Z,80.50
2023-04-30T08:58:18.053Z,80.50
2023-04-30T08:59:01.378Z,80.50
2023-04-30T08:59:46.803Z,80.50
2023-04-30T09:00:31.513Z,80.50
2023-04-30T09:01:16.633Z,80.50
2023-04-30T09:02:01.523Z,80.50
2023-04-30T09:02:46.190Z,80.50
2023-04-30T09:03:31.708Z,80.50
2023-04-30T09:04:16.570Z,96.24
2023-04-30T09:05:01.614Z,96.24
2023-04-30T09:05:48.203Z,92.18
2023-04-30T09:06:33.964Z,92.18
2023-04-30T09:07:16.783Z,92.18
2023-04-30T09:08:04.084Z,92.18
2023-04-30T09:08:46.493Z,92.18
2023-04-30T09:09:32.693Z,92.18
2023-04-30T09:10:17.000Z,92.18
2023-04-30T09:11:02.267Z,92.18
2023-04-30T09:11:47.017Z,113.42
2023-04-30T09:12:32.180Z,88.68
2023-04-30T09:13:19.178Z,88.68
2023-04-30T09:14:02.703Z,88.68
2023-04-30T09:14:47.600Z,88.68
2023-04-30T09:15:33.079Z,88.68
2023-04-30T09:16:19.660Z,88.68
2023-04-30T09:17:04.614Z,88.68
2023-04-30T09:17:48.515Z,88.68
2023-04-30T09:18:32.783Z,88.68
2023-04-30T09:19:17.588Z,88.68
2023-04-30T09:20:03.004Z,88.68
2023-04-30T09:20:48.046Z,111.72
2023-04-30T09:21:32.717Z,122.77
2023-04-30T09:22:18.093Z,122.77
2023-04-30T09:23:03.072Z,122.77
2023-04-30T09:23:47.709Z,122.77
2023-04-30T09:24:33.297Z,122.77
2023-04-30T09:25:18.546Z,122.77
2023-04-30T09:26:03.322Z,122.77
2023-04-30T09:26:47.917Z,122.77
2023-04-30T09:27:33.644Z,122.77